Minneiska, Minnesota
Current Conditions -  °F | °C
As of 1:34 AM on Saturday 29 Nov 2014 (Local Time) from KONA Reporting Station
Clear Clear  
Wind Chill: 25°   Ceiling: Unl
Heat Index: 25°   Visibility: 10mi
Dew Point: 23°   Wind: 3mph
Humidity: 93%   Direction: 170°S
Pressure: 29.69"   Gusts: NA
Location:  44.1503°N, 91.9879°W
Report Text: KONA 290734Z AUTO 17003KT 10SM CLR M04/M05 A2969 RMK AO2
Loading
Personal Weather Stations






























Interactive Weather Map New forecast layout! Learn more

10-Day Weather Forecast

Advertisements
Track Severe Weather on mobile